Time;durP1;ratioP1;P1;durP2;ratioP2;P2;SDS_P1;SDS_P2;PMS_P1;PMS_P2;Temp;Humidity;BMP_temperature;BMP_pressure;BME280_temperature;BME280_humidity;BME280_pressure;Samples;Min_cycle;Max_cycle;Signal;HPM_P1;HPM_P2
2023/03/05 00:00:50;;;;;;;41.00;20.50;;;8.90;84.20;;;;;;5046637;28;20120;-57
2023/03/05 00:03:16;;;;;;;44.35;21.75;;;8.90;84.20;;;;;;5046340;28;20026;-57
2023/03/05 00:05:41;;;;;;;44.28;20.90;;;8.80;84.20;;;;;;5048492;28;20160;-56
2023/03/05 00:08:07;;;;;;;35.20;21.02;;;8.80;84.40;;;;;;5047924;28;20025;-57
2023/03/05 00:10:32;;;;;;;33.83;22.27;;;8.80;84.30;;;;;;5048208;28;20121;-56
2023/03/05 00:12:58;;;;;;;39.97;21.65;;;8.80;84.20;;;;;;5047761;28;20044;-57
2023/03/05 00:15:23;;;;;;;40.05;22.17;;;8.80;84.10;;;;;;5047808;28;20060;-57
2023/03/05 00:17:49;;;;;;;35.67;22.23;;;8.70;84.10;;;;;;5046395;28;20033;-57
2023/03/05 00:20:14;;;;;;;36.90;21.73;;;8.70;84.20;;;;;;5047723;28;20412;-57
2023/03/05 00:22:40;;;;;;;39.03;21.45;;;8.70;84.20;;;;;;5047384;28;20094;-57
2023/03/05 00:25:06;;;;;;;34.22;20.92;;;8.60;84.30;;;;;;5047627;28;20351;-57
2023/03/05 00:27:31;;;;;;;38.63;22.35;;;8.60;84.30;;;;;;5047541;28;20021;-57
2023/03/05 00:29:57;;;;;;;35.13;21.35;;;8.60;84.40;;;;;;5046159;28;20391;-57
2023/03/05 00:32:23;;;;;;;37.25;20.65;;;8.50;85.20;;;;;;5047399;28;20034;-56
2023/03/05 00:34:48;;;;;;;38.17;21.75;;;8.50;84.60;;;;;;5047428;28;20040;-57
2023/03/05 00:37:15;;;;;;;36.83;22.10;;;8.50;84.60;;;;;;5047254;28;20044;-57
2023/03/05 00:39:40;;;;;;;35.50;21.27;;;8.50;84.60;;;;;;5047199;28;20087;-56
2023/03/05 00:42:06;;;;;;;39.53;22.58;;;8.50;84.40;;;;;;5047120;28;20029;-57
2023/03/05 00:44:31;;;;;;;36.90;22.73;;;8.50;84.30;;;;;;5046922;28;20038;-56
2023/03/05 00:46:57;;;;;;;35.55;21.92;;;8.50;84.20;;;;;;5045594;28;20049;-57
2023/03/05 00:49:23;;;;;;;38.78;21.13;;;8.50;84.30;;;;;;5046175;28;20068;-56
2023/03/05 00:51:48;;;;;;;32.00;20.88;;;8.50;85.00;;;;;;5046973;28;20060;-57
2023/03/05 00:54:14;;;;;;;35.72;22.92;;;8.40;84.30;;;;;;5047038;28;20350;-57
2023/03/05 00:56:39;;;;;;;38.03;21.85;;;8.40;84.30;;;;;;5046934;28;20136;-57
2023/03/05 00:59:05;;;;;;;33.80;21.58;;;8.40;84.40;;;;;;5045419;28;20044;-57
2023/03/05 01:01:30;;;;;;;37.67;20.80;;;8.40;84.40;;;;;;5046858;28;20444;-57
2023/03/05 01:03:58;;;;;;;32.50;20.17;;;8.40;84.40;;;;;;5046718;28;20029;-57
2023/03/05 01:06:23;;;;;;;38.63;22.23;;;8.30;84.40;;;;;;5046634;28;20036;-57
2023/03/05 01:08:49;;;;;;;34.50;22.17;;;8.30;84.40;;;;;;5045311;28;20014;-57
2023/03/05 01:11:14;;;;;;;31.20;21.20;;;8.30;84.40;;;;;;5046754;28;20055;-56
2023/03/05 01:13:40;;;;;;;35.22;21.75;;;8.30;84.40;;;;;;5046729;28;20104;-57
2023/03/05 01:16:06;;;;;;;35.08;22.02;;;8.30;84.50;;;;;;5046746;28;20064;-57
2023/03/05 01:18:31;;;;;;;34.78;21.52;;;8.30;84.50;;;;;;5046585;28;20056;-56
2023/03/05 01:20:57;;;;;;;30.40;21.15;;;8.30;84.50;;;;;;5046497;28;20045;-57
2023/03/05 01:23:22;;;;;;;33.20;21.92;;;8.30;84.60;;;;;;5046304;28;20029;-57
2023/03/05 01:25:57;;;;;;;33.10;21.25;;;8.30;84.70;;;;;;5046465;28;20030;-56
2023/03/05 01:28:23;;;;;;;36.08;22.10;;;8.20;84.60;;;;;;5046240;28;20091;-56
2023/03/05 01:30:49;;;;;;;34.13;21.00;;;8.20;84.60;;;;;;5046398;28;20037;-57
2023/03/05 01:33:14;;;;;;;36.00;20.83;;;8.20;84.60;;;;;;5046292;28;20076;-57
2023/03/05 01:35:40;;;;;;;35.88;21.50;;;8.20;84.60;;;;;;5046220;28;20029;-56
2023/03/05 01:38:06;;;;;;;36.60;21.10;;;8.20;84.50;;;;;;5046307;28;20363;-57
2023/03/05 01:40:31;;;;;;;32.45;20.83;;;8.20;84.50;;;;;;5044716;28;20407;-56
2023/03/05 01:43:12;;;;;;;34.20;22.08;;;8.10;84.50;;;;;;5045853;28;20021;-56
2023/03/05 01:45:38;;;;;;;33.45;21.52;;;8.20;84.60;;;;;;5044583;28;20037;-56
2023/03/05 01:48:04;;;;;;;34.55;21.42;;;8.10;84.60;;;;;;5045963;28;20087;-57
2023/03/05 01:50:29;;;;;;;32.00;20.65;;;8.10;84.70;;;;;;5045960;28;20033;-57
2023/03/05 01:53:00;;;;;;;37.38;22.13;;;8.10;84.70;;;;;;5046278;28;20354;-57
2023/03/05 01:55:27;;;;;;;31.25;21.40;;;8.10;84.70;;;;;;5044568;28;20124;-57
2023/03/05 01:58:03;;;;;;;31.80;21.17;;;8.00;84.60;;;;;;5044509;28;20040;-57
2023/03/05 02:00:38;;;;;;;34.22;21.73;;;8.00;85.30;;;;;;5044452;28;20040;-57
2023/03/05 02:03:05;;;;;;;38.83;22.00;;;8.00;84.70;;;;;;5044152;28;20025;-56
2023/03/05 02:05:33;;;;;;;31.75;21.52;;;8.00;84.70;;;;;;5044377;28;20053;-57
2023/03/05 02:07:59;;;;;;;29.33;20.25;;;8.00;84.70;;;;;;5045543;28;20026;-56
2023/03/05 02:10:27;;;;;;;36.03;22.52;;;8.00;84.70;;;;;;5045649;28;20026;-57
2023/03/05 02:12:53;;;;;;;35.53;21.35;;;8.00;84.90;;;;;;5043880;28;20040;-57
2023/03/05 02:15:19;;;;;;;33.20;21.75;;;8.00;84.80;;;;;;5045338;28;20041;-57
2023/03/05 02:17:45;;;;;;;34.47;22.13;;;8.00;84.90;;;;;;5045445;28;20048;-57
2023/03/05 02:20:13;;;;;;;31.20;21.40;;;7.90;84.80;;;;;;5045553;28;20112;-56
2023/03/05 02:22:39;;;;;;;32.90;20.90;;;7.90;84.80;;;;;;5045255;28;20041;-57
2023/03/05 02:25:12;;;;;;;28.65;20.73;;;7.90;84.80;;;;;;5045391;28;20056;-57
2023/03/05 02:27:38;;;;;;;32.63;21.08;;;7.90;84.80;;;;;;5045255;28;20021;-57
2023/03/05 02:30:04;;;;;;;32.35;21.92;;;7.90;84.90;;;;;;5043734;28;20036;-57
2023/03/05 02:32:30;;;;;;;32.92;21.88;;;7.90;84.90;;;;;;5045065;28;20018;-57
2023/03/05 02:34:55;;;;;;;34.85;21.88;;;7.90;84.80;;;;;;5045090;28;20427;-57
2023/03/05 02:37:21;;;;;;;33.08;21.73;;;7.90;84.90;;;;;;5045192;28;20021;-57
2023/03/05 02:39:46;;;;;;;29.75;21.40;;;7.90;85.50;;;;;;5045136;28;20030;-57
2023/03/05 02:42:12;;;;;;;36.65;22.58;;;7.90;84.80;;;;;;5045028;28;20030;-56
2023/03/05 02:44:37;;;;;;;33.95;22.08;;;7.90;84.80;;;;;;5044842;28;20038;-57
2023/03/05 02:47:03;;;;;;;29.58;21.38;;;7.90;84.80;;;;;;5044839;28;20132;-57
2023/03/05 02:49:29;;;;;;;31.55;21.27;;;7.80;84.80;;;;;;5044846;28;20434;-57
2023/03/05 02:51:54;;;;;;;28.20;22.02;;;7.80;84.80;;;;;;5044853;28;20025;-57
2023/03/05 02:54:20;;;;;;;32.38;21.77;;;7.80;84.80;;;;;;5044785;28;20133;-57
2023/03/05 02:56:46;;;;;;;33.90;21.67;;;7.80;84.90;;;;;;5044877;28;20358;-57
2023/03/05 02:59:11;;;;;;;30.42;21.55;;;7.80;84.90;;;;;;5044810;28;20021;-57
2023/03/05 03:01:37;;;;;;;30.90;21.25;;;7.80;84.80;;;;;;5044676;28;20044;-56
2023/03/05 03:04:02;;;;;;;37.45;23.38;;;7.80;84.90;;;;;;5044683;28;20037;-57
2023/03/05 03:06:28;;;;;;;32.60;21.95;;;7.80;84.90;;;;;;5044787;28;20032;-55
2023/03/05 03:08:53;;;;;;;31.63;22.38;;;7.80;85.00;;;;;;5044621;28;20454;-55
2023/03/05 03:11:20;;;;;;;35.05;22.58;;;7.70;84.90;;;;;;5046824;28;20339;-55
2023/03/05 03:13:45;;;;;;;30.85;21.60;;;7.70;84.90;;;;;;5051370;28;20029;-55
2023/03/05 03:16:12;;;;;;;29.58;21.65;;;7.80;85.00;;;;;;5051458;28;20083;-55
2023/03/05 03:18:38;;;;;;;30.38;21.50;;;7.70;84.90;;;;;;5051365;28;20040;-55
2023/03/05 03:21:04;;;;;;;32.72;22.25;;;7.70;84.90;;;;;;5051165;28;20038;-55
2023/03/05 03:23:29;;;;;;;34.13;22.10;;;7.70;84.80;;;;;;5051377;28;20112;-55
2023/03/05 03:25:55;;;;;;;33.40;21.80;;;7.70;84.80;;;;;;5051298;28;20052;-55
2023/03/05 03:28:20;;;;;;;32.00;21.80;;;7.70;84.90;;;;;;5050879;28;20026;-55
2023/03/05 03:30:46;;;;;;;29.85;20.92;;;7.70;85.50;;;;;;5050957;28;20147;-55
2023/03/05 03:33:11;;;;;;;30.63;21.27;;;7.70;84.90;;;;;;5050961;28;20032;-55
2023/03/05 03:35:37;;;;;;;33.90;21.65;;;7.70;84.90;;;;;;5051072;28;20112;-55
2023/03/05 03:38:03;;;;;;;32.00;22.35;;;7.70;85.60;;;;;;5051018;28;20444;-55
2023/03/05 03:40:29;;;;;;;36.10;22.75;;;7.70;85.00;;;;;;5050813;28;20037;-55
2023/03/05 03:42:54;;;;;;;31.98;22.20;;;7.70;84.90;;;;;;5050975;28;20025;-55
2023/03/05 03:45:23;;;;;;;31.60;21.40;;;7.70;85.00;;;;;;5050992;28;20096;-55
2023/03/05 03:47:49;;;;;;;31.15;21.85;;;7.70;85.00;;;;;;5051106;28;20021;-55
2023/03/05 03:50:15;;;;;;;34.38;21.75;;;7.60;84.90;;;;;;5050675;28;20462;-55
2023/03/05 03:52:40;;;;;;;32.22;21.98;;;7.70;85.00;;;;;;5050846;28;20089;-55
2023/03/05 03:55:06;;;;;;;31.75;22.55;;;7.60;85.00;;;;;;5051076;28;20041;-55
2023/03/05 03:57:32;;;;;;;30.05;22.95;;;7.60;85.00;;;;;;5051029;28;20025;-55
2023/03/05 03:59:59;;;;;;;29.92;21.50;;;7.60;85.00;;;;;;5050881;28;20046;-55
2023/03/05 04:02:25;;;;;;;31.77;22.02;;;7.60;85.00;;;;;;5050858;28;20083;-55
2023/03/05 04:04:50;;;;;;;34.72;21.85;;;7.60;85.10;;;;;;5049459;28;20029;-55
2023/03/05 04:07:16;;;;;;;29.35;21.67;;;7.60;85.10;;;;;;5050793;28;20029;-55
2023/03/05 04:09:42;;;;;;;30.25;21.63;;;7.60;85.10;;;;;;5050801;28;20045;-55
2023/03/05 04:12:08;;;;;;;27.38;20.85;;;7.60;85.00;;;;;;5050802;28;20029;-55
2023/03/05 04:14:33;;;;;;;30.00;21.38;;;7.60;85.10;;;;;;5050754;28;20053;-55
2023/03/05 04:16:59;;;;;;;28.40;22.17;;;7.60;85.10;;;;;;5051194;28;20327;-55
2023/03/05 04:19:24;;;;;;;31.60;23.77;;;7.60;85.10;;;;;;5050937;28;20033;-55
2023/03/05 04:21:50;;;;;;;33.15;22.45;;;7.50;85.10;;;;;;5050819;28;20025;-55
2023/03/05 04:24:15;;;;;;;27.50;21.50;;;7.60;85.20;;;;;;5046390;28;20045;-55
2023/03/05 04:26:41;;;;;;;32.85;21.85;;;7.50;85.20;;;;;;5047639;28;20022;-55
2023/03/05 04:29:07;;;;;;;31.13;21.50;;;7.50;85.20;;;;;;5047357;28;20022;-55
2023/03/05 04:31:32;;;;;;;28.80;21.65;;;7.50;85.10;;;;;;5047538;28;20167;-55
2023/03/05 04:33:58;;;;;;;29.55;21.73;;;7.50;85.10;;;;;;5047257;28;20040;-55
2023/03/05 04:36:24;;;;;;;29.40;21.17;;;7.50;85.10;;;;;;5047398;28;20030;-55
2023/03/05 04:38:49;;;;;;;28.77;21.50;;;7.50;85.10;;;;;;5047256;28;20048;-55
2023/03/05 04:41:15;;;;;;;31.77;21.58;;;7.50;85.10;;;;;;5047393;28;20041;-55
2023/03/05 04:43:40;;;;;;;30.58;20.60;;;7.50;85.20;;;;;;5047086;28;20472;-55
2023/03/05 04:46:06;;;;;;;28.90;21.58;;;7.50;85.10;;;;;;5047295;28;20029;-55
2023/03/05 04:48:31;;;;;;;32.50;22.58;;;7.50;85.10;;;;;;5045697;28;20485;-55
2023/03/05 04:50:57;;;;;;;29.33;21.58;;;7.50;85.20;;;;;;5047324;28;20155;-55
2023/03/05 04:53:23;;;;;;;34.13;22.15;;;7.50;85.20;;;;;;5045442;28;20059;-57
2023/03/05 04:55:54;;;;;;;35.65;24.50;;;7.40;85.10;;;;;;5046947;28;20030;-57
2023/03/05 04:58:20;;;;;;;30.23;22.38;;;7.50;85.80;;;;;;5047031;28;20029;-56
2023/03/05 05:00:46;;;;;;;31.13;22.60;;;7.50;85.10;;;;;;5046990;28;20048;-57
2023/03/05 05:03:11;;;;;;;32.17;22.85;;;7.40;85.00;;;;;;5046703;28;20025;-56
2023/03/05 05:05:37;;;;;;;30.27;22.88;;;7.40;85.10;;;;;;5045310;28;20033;-56
2023/03/05 05:08:03;;;;;;;32.95;21.80;;;7.40;85.10;;;;;;5046932;28;20048;-57
2023/03/05 05:10:28;;;;;;;29.88;21.40;;;7.40;85.10;;;;;;5046577;28;20109;-57
2023/03/05 05:12:54;;;;;;;31.15;21.73;;;7.40;85.10;;;;;;5046679;28;20017;-57
2023/03/05 05:15:19;;;;;;;28.27;21.77;;;7.40;85.10;;;;;;5045252;28;20093;-57
2023/03/05 05:17:45;;;;;;;34.75;21.80;;;7.40;85.10;;;;;;5046647;28;20450;-56
2023/03/05 05:20:12;;;;;;;29.92;22.38;;;7.40;85.10;;;;;;5046370;28;20033;-57
2023/03/05 05:22:38;;;;;;;32.55;22.40;;;7.40;85.00;;;;;;5046557;28;20104;-56
2023/03/05 05:25:04;;;;;;;31.30;21.20;;;7.40;85.10;;;;;;5046337;28;20328;-57
2023/03/05 05:27:29;;;;;;;31.48;22.30;;;7.40;85.00;;;;;;5046561;28;20029;-56
2023/03/05 05:29:55;;;;;;;30.38;22.05;;;7.40;85.10;;;;;;5046469;28;20439;-56
2023/03/05 05:32:21;;;;;;;29.25;22.00;;;7.40;85.00;;;;;;5046210;28;20022;-57
2023/03/05 05:34:47;;;;;;;30.42;21.25;;;7.30;85.00;;;;;;5044522;28;20064;-57
2023/03/05 05:37:13;;;;;;;35.00;22.75;;;7.30;85.00;;;;;;5046266;28;20029;-57
2023/03/05 05:39:38;;;;;;;31.55;22.73;;;7.30;85.70;;;;;;5046146;28;20049;-57
2023/03/05 05:42:04;;;;;;;35.58;23.23;;;7.30;85.10;;;;;;5046171;28;20060;-56
2023/03/05 05:44:30;;;;;;;30.15;21.63;;;7.30;85.10;;;;;;5045868;28;20037;-57
2023/03/05 05:46:55;;;;;;;32.80;23.15;;;7.30;85.40;;;;;;5046085;28;20025;-56
2023/03/05 05:49:21;;;;;;;28.77;22.00;;;7.30;85.00;;;;;;5045920;28;20030;-56
2023/03/05 05:51:46;;;;;;;29.70;21.00;;;7.30;85.10;;;;;;5046012;28;20014;-56
2023/03/05 05:54:13;;;;;;;35.78;22.83;;;7.30;85.30;;;;;;5045909;28;20030;-57
2023/03/05 05:56:38;;;;;;;32.15;21.55;;;7.30;85.20;;;;;;5045786;28;20017;-56
2023/03/05 05:59:04;;;;;;;31.92;22.40;;;7.30;85.30;;;;;;5045650;28;20036;-56
2023/03/05 06:01:31;;;;;;;31.92;22.63;;;7.30;85.30;;;;;;5045769;28;20025;-56
2023/03/05 06:03:57;;;;;;;32.45;21.48;;;7.30;85.30;;;;;;5045382;28;20033;-56
2023/03/05 06:06:23;;;;;;;30.88;22.70;;;7.30;85.30;;;;;;5045506;28;20084;-57
2023/03/05 06:08:49;;;;;;;29.23;20.95;;;7.30;85.40;;;;;;5045670;28;20021;-57
2023/03/05 06:11:14;;;;;;;27.83;20.48;;;7.30;85.40;;;;;;5045636;28;20056;-56
2023/03/05 06:13:40;;;;;;;29.98;20.92;;;7.30;85.40;;;;;;5045478;28;20087;-56
2023/03/05 06:16:08;;;;;;;27.38;20.17;;;7.30;85.50;;;;;;5045591;28;20029;-57
2023/03/05 06:18:33;;;;;;;32.00;21.35;;;7.30;85.50;;;;;;5045398;28;20029;-57
2023/03/05 06:21:01;;;;;;;26.88;20.02;;;7.30;85.60;;;;;;5045472;28;20033;-56
2023/03/05 06:23:27;;;;;;;29.02;21.05;;;7.30;85.70;;;;;;5045162;28;20034;-57
2023/03/05 06:25:52;;;;;;;30.67;20.58;;;7.30;85.70;;;;;;5045242;28;20055;-56
2023/03/05 06:28:18;;;;;;;30.75;21.30;;;7.30;85.80;;;;;;5045310;28;20018;-56
2023/03/05 06:30:43;;;;;;;27.70;20.80;;;7.30;85.80;;;;;;5043838;28;20032;-56
2023/03/05 06:33:09;;;;;;;27.15;19.25;;;7.30;85.80;;;;;;5045428;28;20033;-57
2023/03/05 06:35:37;;;;;;;27.00;19.92;;;7.30;85.80;;;;;;5044950;28;20108;-56
2023/03/05 06:38:03;;;;;;;30.90;20.55;;;7.30;85.80;;;;;;5045157;28;20025;-57
2023/03/05 06:40:28;;;;;;;30.38;21.10;;;7.40;85.80;;;;;;5045037;28;20040;-57
2023/03/05 06:42:54;;;;;;;29.40;21.05;;;7.40;85.70;;;;;;5044859;28;20029;-56
2023/03/05 06:45:19;;;;;;;29.88;20.83;;;7.30;85.60;;;;;;5043470;28;20049;-56
2023/03/05 06:47:45;;;;;;;30.15;20.88;;;7.40;85.60;;;;;;5044569;28;20025;-57
2023/03/05 06:50:11;;;;;;;35.22;21.65;;;7.40;85.60;;;;;;5044855;28;20128;-56
2023/03/05 06:52:39;;;;;;;28.00;20.88;;;7.40;85.50;;;;;;5043571;28;20021;-56
2023/03/05 06:55:05;;;;;;;28.13;20.30;;;7.40;85.60;;;;;;5044899;28;20116;-57
2023/03/05 06:57:31;;;;;;;32.78;22.00;;;7.40;85.50;;;;;;5045190;28;20105;-56
2023/03/05 06:59:57;;;;;;;30.10;21.25;;;7.40;85.50;;;;;;5044830;28;20141;-56
2023/03/05 07:02:22;;;;;;;31.23;22.25;;;7.40;86.10;;;;;;5044682;28;20029;-57
2023/03/05 07:04:48;;;;;;;31.70;21.30;;;7.40;85.40;;;;;;5044710;28;20041;-56
2023/03/05 07:07:13;;;;;;;30.70;21.75;;;7.40;85.40;;;;;;5044871;28;20113;-57
2023/03/05 07:09:41;;;;;;;31.23;20.48;;;7.40;85.40;;;;;;5044673;28;20021;-57
2023/03/05 07:12:10;;;;;;;31.80;20.83;;;7.40;85.40;;;;;;5043236;28;20025;-57
2023/03/05 07:14:36;;;;;;;31.55;21.42;;;7.40;85.40;;;;;;5044763;28;20036;-56
2023/03/05 07:17:02;;;;;;;29.20;22.13;;;7.40;85.30;;;;;;5044698;28;20025;-57
2023/03/05 07:19:27;;;;;;;28.42;21.33;;;7.40;85.30;;;;;;5044536;28;20093;-56
2023/03/05 07:21:53;;;;;;;34.65;21.10;;;7.40;85.30;;;;;;5044631;28;20327;-57
2023/03/05 07:24:19;;;;;;;28.42;21.65;;;7.40;85.30;;;;;;5044545;28;20044;-57
2023/03/05 07:26:44;;;;;;;26.17;20.77;;;7.40;85.30;;;;;;5044583;28;20079;-56
2023/03/05 07:29:10;;;;;;;27.70;20.50;;;7.40;85.30;;;;;;5044457;28;20104;-57
2023/03/05 07:31:35;;;;;;;29.85;21.25;;;7.50;85.30;;;;;;5044625;28;20022;-56
2023/03/05 07:34:01;;;;;;;30.52;22.65;;;7.40;85.10;;;;;;5044593;28;20033;-57
2023/03/05 07:36:27;;;;;;;29.45;22.08;;;7.40;85.10;;;;;;5044643;28;20037;-57
2023/03/05 07:38:53;;;;;;;30.80;20.83;;;7.40;85.20;;;;;;5044531;28;20072;-57
2023/03/05 07:41:18;;;;;;;30.38;21.77;;;7.40;85.10;;;;;;5044580;28;20446;-57
2023/03/05 07:43:48;;;;;;;32.05;21.20;;;7.40;85.40;;;;;;5044369;28;20029;-57
2023/03/05 07:46:14;;;;;;;29.58;21.67;;;7.40;85.10;;;;;;5042984;28;20391;-57
2023/03/05 07:48:40;;;;;;;29.42;21.02;;;7.40;85.10;;;;;;5044419;28;20085;-57
2023/03/05 07:51:07;;;;;;;30.58;21.67;;;7.50;85.10;;;;;;5044174;28;20087;-56
2023/03/05 07:53:33;;;;;;;33.17;21.45;;;7.50;85.10;;;;;;5044271;28;20044;-57
2023/03/05 07:55:58;;;;;;;32.70;21.75;;;7.50;85.00;;;;;;5042867;28;20045;-56
2023/03/05 07:58:25;;;;;;;30.95;21.52;;;7.50;84.90;;;;;;5046721;28;20061;-57
2023/03/05 08:00:50;;;;;;;29.38;21.45;;;7.50;84.90;;;;;;5048001;28;20030;-57
2023/03/05 08:03:16;;;;;;;31.88;21.52;;;7.50;84.80;;;;;;5048212;28;20040;-57
2023/03/05 08:05:41;;;;;;;33.60;22.05;;;7.50;84.90;;;;;;5048252;28;20033;-56
2023/03/05 08:08:07;;;;;;;31.27;21.65;;;7.50;84.80;;;;;;5048093;28;20021;-57
2023/03/05 08:10:33;;;;;;;30.13;20.55;;;7.50;84.70;;;;;;5047821;28;20063;-56
2023/03/05 08:12:59;;;;;;;27.92;21.30;;;7.60;84.70;;;;;;5047806;28;20343;-56
2023/03/05 08:15:24;;;;;;;31.85;22.15;;;7.60;84.60;;;;;;5047842;28;20045;-56
2023/03/05 08:17:50;;;;;;;34.05;23.15;;;7.60;84.60;;;;;;5047601;28;20032;-56
2023/03/05 08:20:22;;;;;;;32.45;22.00;;;7.60;84.50;;;;;;5047692;28;20061;-56
2023/03/05 08:22:47;;;;;;;32.42;22.20;;;7.60;84.50;;;;;;5047441;28;20103;-55
2023/03/05 08:25:13;;;;;;;32.47;22.25;;;7.70;84.40;;;;;;5047347;28;20120;-55
2023/03/05 08:27:39;;;;;;;31.02;22.05;;;7.60;84.30;;;;;;5047410;28;20442;-55
2023/03/05 08:30:06;;;;;;;32.83;21.77;;;7.70;84.30;;;;;;5047456;28;20454;-55
2023/03/05 08:32:31;;;;;;;29.77;21.33;;;7.70;84.20;;;;;;5047492;28;20081;-55
2023/03/05 08:34:57;;;;;;;30.92;22.92;;;7.70;84.70;;;;;;5047275;28;20036;-55
2023/03/05 08:37:23;;;;;;;31.13;23.02;;;7.70;84.00;;;;;;5046108;28;20088;-55
2023/03/05 08:39:49;;;;;;;33.00;23.60;;;7.70;84.00;;;;;;5047213;28;20025;-55
2023/03/05 08:42:14;;;;;;;34.67;22.67;;;7.70;83.90;;;;;;5047225;28;20522;-55
2023/03/05 08:44:40;;;;;;;33.67;23.08;;;7.80;84.00;;;;;;5047094;28;20037;-55
2023/03/05 08:47:15;;;;;;;33.42;22.85;;;7.80;84.00;;;;;;5047240;28;20207;-55
2023/03/05 08:49:40;;;;;;;33.95;23.42;;;7.80;83.90;;;;;;5046970;28;20033;-56
2023/03/05 08:52:06;;;;;;;30.80;22.67;;;7.80;83.90;;;;;;5047026;28;20040;-56
2023/03/05 08:54:32;;;;;;;33.58;24.58;;;7.80;84.50;;;;;;5046902;28;20125;-56
2023/03/05 08:56:58;;;;;;;31.08;22.85;;;7.80;83.80;;;;;;5046967;28;20033;-57
2023/03/05 08:59:23;;;;;;;34.90;23.45;;;7.80;83.80;;;;;;5046940;28;20394;-56
2023/03/05 09:04:52;;;;;;;36.80;24.05;;;7.90;83.70;;;;;;5046383;28;20052;-55
2023/03/05 09:07:18;;;;;;;34.83;24.08;;;7.90;84.20;;;;;;5046408;28;20013;-55
2023/03/05 09:09:43;;;;;;;36.67;25.80;;;7.90;83.60;;;;;;5045538;28;20026;-55
2023/03/05 09:12:10;;;;;;;35.10;25.58;;;8.00;83.50;;;;;;5046154;28;20018;-55
2023/03/05 09:14:36;;;;;;;36.60;26.02;;;8.00;83.20;;;;;;5046205;28;20038;-55
2023/03/05 09:17:01;;;;;;;36.42;25.05;;;8.00;83.10;;;;;;5046236;28;20029;-55
2023/03/05 09:19:27;;;;;;;34.70;24.75;;;8.00;83.10;;;;;;5046045;28;20033;-55
2023/03/05 09:21:52;;;;;;;37.50;25.48;;;8.00;83.10;;;;;;5045983;28;20025;-55
2023/03/05 09:24:18;;;;;;;35.78;25.67;;;8.00;83.20;;;;;;5044633;28;20037;-55
2023/03/05 09:26:43;;;;;;;39.47;24.60;;;8.00;83.20;;;;;;5046306;28;20069;-55
2023/03/05 09:29:09;;;;;;;38.53;26.15;;;8.00;83.10;;;;;;5036792;28;20064;-55
2023/03/05 09:31:35;;;;;;;39.28;26.45;;;8.00;83.10;;;;;;5026220;28;20037;-55
2023/03/05 09:34:01;;;;;;;45.00;27.85;;;8.00;82.60;;;;;;5026302;28;20026;-55
2023/03/05 09:36:27;;;;;;;63.03;29.50;;;8.10;82.50;;;;;;5041850;28;20067;-55
2023/03/05 09:38:53;;;;;;;74.55;31.15;;;8.10;82.30;;;;;;5031787;28;20030;-55
2023/03/05 09:41:26;;;;;;;69.30;30.30;;;8.10;82.30;;;;;;5042152;28;20129;-55
2023/03/05 09:44:10;;;;;;;61.83;30.58;;;8.20;82.30;;;;;;5044364;28;20439;-55
2023/03/05 09:47:02;;;;;;;74.63;29.20;;;8.20;82.30;;;;;;5045834;28;20060;-55
2023/03/05 09:49:59;;;;;;;63.08;29.75;;;8.20;82.40;;;;;;5027569;28;20034;-55
2023/03/05 09:52:30;;;;;;;76.38;29.90;;;8.20;82.50;;;;;;5042531;28;20112;-55
2023/03/05 09:54:56;;;;;;;93.75;33.00;;;8.30;82.60;;;;;;5044323;28;20029;-55
2023/03/05 09:57:27;;;;;;;76.88;32.22;;;8.30;82.70;;;;;;5045354;28;20040;-55
2023/03/05 10:00:00;;;;;;;79.97;30.45;;;8.30;82.80;;;;;;5043841;28;20041;-55
2023/03/05 10:02:28;;;;;;;91.57;31.90;;;8.30;82.70;;;;;;5044760;28;20064;-55
2023/03/05 10:04:59;;;;;;;76.05;32.55;;;8.40;82.80;;;;;;5043653;28;20465;-55
2023/03/05 10:07:35;;;;;;;113.85;35.38;;;8.40;82.70;;;;;;5043489;28;20068;-55
2023/03/05 10:10:14;;;;;;;98.30;33.42;;;8.40;83.00;;;;;;5043511;28;20077;-55
2023/03/05 10:12:44;;;;;;;92.45;33.30;;;8.40;82.80;;;;;;5043487;28;20029;-55
2023/03/05 10:15:26;;;;;;;95.30;32.20;;;8.50;82.80;;;;;;5044035;28;20075;-55
2023/03/05 10:18:36;;;;;;;120.10;34.67;;;8.50;83.60;;;;;;5043490;28;20030;-55
2023/03/05 10:21:12;;;;;;;114.70;36.38;;;8.60;83.20;;;;;;4986029;28;20145;-55
2023/03/05 10:24:15;;;;;;;121.18;35.22;;;8.60;83.30;;;;;;5039196;28;20040;-55
2023/03/05 10:26:51;;;;;;;140.85;38.75;;;8.70;83.60;;;;;;5041070;28;20049;-55
2023/03/05 10:29:19;;;;;;;137.20;39.63;;;8.70;83.60;;;;;;5037167;28;20033;-55
2023/03/05 10:32:05;;;;;;;131.85;39.38;;;8.80;83.90;;;;;;5037903;28;20025;-55
2023/03/05 10:34:34;;;;;;;126.05;37.90;;;8.80;83.90;;;;;;5025070;28;20029;-55
2023/03/05 10:37:19;;;;;;;143.10;39.63;;;8.80;83.80;;;;;;5024797;28;20104;-55
2023/03/05 10:40:28;;;;;;;156.13;38.97;;;8.90;83.70;;;;;;5023349;28;20109;-54
2023/03/05 10:43:07;;;;;;;157.38;39.97;;;8.90;83.60;;;;;;5016491;28;20498;-55
2023/03/05 10:45:55;;;;;;;167.73;41.88;;;9.00;83.70;;;;;;5024625;28;20089;-55
2023/03/05 10:49:15;;;;;;;169.07;42.63;;;9.00;83.80;;;;;;5043983;28;20034;-55
2023/03/05 10:51:47;;;;;;;153.15;40.60;;;9.00;84.00;;;;;;4997455;28;20045;-55
2023/03/05 10:54:27;;;;;;;165.95;40.78;;;9.10;84.10;;;;;;5022072;28;20052;-55
2023/03/05 10:57:22;;;;;;;155.57;41.45;;;9.20;84.10;;;;;;5043898;28;20446;-55
2023/03/05 10:59:56;;;;;;;155.43;40.47;;;9.20;84.00;;;;;;5034630;28;20078;-55
2023/03/05 11:02:22;;;;;;;162.88;41.97;;;9.30;84.20;;;;;;5043022;28;20512;-55
2023/03/05 11:04:48;;;;;;;147.98;41.67;;;9.30;84.10;;;;;;5044200;28;20061;-55
2023/03/05 11:07:14;;;;;;;181.68;42.58;;;9.40;84.20;;;;;;5044561;28;20041;-55
2023/03/05 11:09:40;;;;;;;153.50;42.78;;;9.40;84.10;;;;;;5044173;28;20040;-55
2023/03/05 11:12:16;;;;;;;152.25;42.00;;;9.50;84.30;;;;;;5042653;28;20030;-55
2023/03/05 11:15:08;;;;;;;162.18;41.42;;;9.50;84.10;;;;;;5043897;28;20098;-55
2023/03/05 11:17:43;;;;;;;162.82;40.13;;;9.50;83.80;;;;;;5044152;28;20037;-55
2023/03/05 11:20:30;;;;;;;170.18;41.65;;;9.60;83.80;;;;;;5044086;28;20092;-55
2023/03/05 11:23:09;;;;;;;163.15;42.80;;;9.60;83.80;;;;;;5044893;28;20038;-55
2023/03/05 11:25:49;;;;;;;168.02;41.47;;;9.70;83.90;;;;;;5044765;28;20029;-55
2023/03/05 11:28:19;;;;;;;180.32;41.72;;;9.70;83.70;;;;;;5043596;28;20033;-55
2023/03/05 11:30:57;;;;;;;172.65;40.55;;;9.80;83.60;;;;;;5042683;28;20076;-55
2023/03/05 11:33:23;;;;;;;161.88;40.40;;;9.80;83.10;;;;;;5046484;28;20042;-55
2023/03/05 11:35:49;;;;;;;167.23;40.92;;;9.80;82.90;;;;;;5048005;28;20040;-55
2023/03/05 11:38:20;;;;;;;168.32;40.45;;;9.90;83.10;;;;;;5048190;28;20144;-55
2023/03/05 11:40:46;;;;;;;202.30;42.08;;;9.90;82.80;;;;;;5046621;28;20052;-55
2023/03/05 11:43:18;;;;;;;158.65;41.25;;;10.00;83.00;;;;;;5047796;28;20470;-55
2023/03/05 11:45:44;;;;;;;194.75;44.03;;;10.00;83.00;;;;;;5046453;28;20025;-55
2023/03/05 11:48:24;;;;;;;209.10;44.83;;;10.10;82.80;;;;;;5046157;28;20030;-55
2023/03/05 11:50:55;;;;;;;239.82;45.13;;;10.10;82.90;;;;;;5046393;28;20044;-55
2023/03/05 11:53:24;;;;;;;219.98;46.80;;;10.10;82.60;;;;;;5046223;28;20021;-55
2023/03/05 11:56:19;;;;;;;223.10;46.42;;;10.10;83.10;;;;;;5046144;28;20112;-55
2023/03/05 11:59:03;;;;;;;218.73;45.75;;;10.20;83.50;;;;;;5046154;28;20029;-55
2023/03/05 12:01:31;;;;;;;187.00;43.92;;;10.20;83.60;;;;;;5045708;28;20036;-55
2023/03/05 12:03:57;;;;;;;228.48;47.47;;;10.20;83.30;;;;;;5044488;28;20029;-55
2023/03/05 12:06:39;;;;;;;246.50;46.35;;;10.30;83.20;;;;;;5045239;28;20030;-55
2023/03/05 12:09:24;;;;;;;252.00;47.78;;;10.30;83.50;;;;;;5043921;28;20022;-55
2023/03/05 12:11:52;;;;;;;263.35;49.95;;;10.30;83.50;;;;;;5045327;28;20025;-55
2023/03/05 12:14:31;;;;;;;277.35;48.58;;;10.30;84.30;;;;;;5044029;28;20417;-55
2023/03/05 12:17:08;;;;;;;221.88;45.78;;;10.40;83.90;;;;;;5046834;28;20424;-55
2023/03/05 12:20:27;;;;;;;207.90;46.13;;;10.50;83.70;;;;;;5041858;28;20045;-55
2023/03/05 12:22:53;;;;;;;212.00;44.78;;;10.50;83.40;;;;;;5029642;28;20176;-54
2023/03/05 12:25:32;;;;;;;210.02;43.58;;;10.50;83.30;;;;;;5023897;28;20136;-55
2023/03/05 12:27:58;;;;;;;167.07;41.53;;;10.50;82.80;;;;;;5043149;28;20087;-55
2023/03/05 12:30:35;;;;;;;228.13;43.78;;;10.60;82.40;;;;;;5044631;28;20472;-55
2023/03/05 12:33:03;;;;;;;183.90;40.83;;;10.60;82.40;;;;;;5045410;28;20044;-54
2023/03/05 12:35:37;;;;;;;182.73;43.28;;;10.60;82.20;;;;;;5046605;28;20037;-55
2023/03/05 12:38:28;;;;;;;183.05;40.63;;;10.60;82.20;;;;;;5031877;28;20055;-55
2023/03/05 12:41:29;;;;;;;198.80;42.60;;;10.70;82.40;;;;;;5043508;28;20026;-55
2023/03/05 12:44:04;;;;;;;152.32;39.80;;;10.70;82.50;;;;;;5042749;28;20385;-55